Aeroporto :
LOGIN :

Iscrizione | Disclaimer

   EN    FR    IT 

 










Sommario :    VFR   VFR Marginale   IFR   IFR Intensivo   IFR Molto Intensivo
Visibilità : 
Base nubi : 
>= 8 km
>= 3000ft
5 / 8 km
1000 / 3000 ft
1500m / 5 km
500 / 1000 ft
800 / 1500m
200 / 500 ft
< 800m
< 200 ft
Simboli :   Temporali  Nebbia  Neve Forte  Precipitazioni Forti  Vento > 20 kt
SIGMETs :   Varie  Temporali  Ghiacco  Turbolenza  Onda orograficha  Ceneri Vulcaniche






- Altitudine del aeroporto : 265 ft
- Codice IATA : BJY


LYBT - Batajnica Air Base

ULTIMO METAR :
  • 170000Z 00000KT CAVOK 01/01 Q1026 NOSIG

METARs OBSOLETI :
  • 162330Z 09002KT CAVOK 01/01 Q1026 NOSIG
  • 162300Z 08003KT CAVOK 00/M00 Q1027 NOSIG
  • 162230Z 07004KT CAVOK 02/00 Q1027 NOSIG
  • 162200Z 08006KT CAVOK 02/M00 Q1027 NOSIG
  • 162130Z 07003KT 040V100 CAVOK 03/00 Q1027 NOSIG

TAF TAF LYBT
Valido dal 17 a 00 ore il 18 a 00 ore UTC


162300Z 1700/1724 08006KT CAVOK TX14/1713Z TNM00/1706Z
TEMPO 1705/1707 2000 BR



MetMap, La meteo Aeronautica in un colpo d'occhio ! - Copyright ORBIFLY Dicembre 2007 - Disclaimer

ORBIFLY MET'MAP TEAM :

Programmazione e sviluppo : Alexandra Zaïnal
Concezione : Baudouin d'Aumeries
Aiuto per la programmazione : Marc-Olivier Méhu
Supporto tecnico e logistico : Manuel Goepfert
Aiuto per la traduzione : Arnaldo La Scala

Contatto : metmap@orbifly.com




FONTI E CREDITI :

   NOAA